Winfield, Canada
Current Conditions -  °F | °C
As of 10:00 PM on Saturday 20 Dec 2014 (Local Time) from CYEG Reporting Station
Scattered Clouds Scattered Clouds  
Wind Chill: 10°   Ceiling: Unl
Heat Index: 23°   Visibility: 20mi
Dew Point: 18°   Wind: 16mph
Humidity: 80%   Direction: 140°SE
Pressure: 29.33"   Gusts: NA
Location:  52.97°N, 114.43°W
Report Text: CYEG 210500Z 14014KT 20SM SCT250 M05/M08 A2933 RMK CI3 SLP971
Loading
Personal Weather Stations






























Interactive Weather Map New forecast layout! Learn more

10-Day Weather Forecast

Advertisements
Track Severe Weather on mobile